Time;durP1;ratioP1;P1;durP2;ratioP2;P2;SDS_P1;SDS_P2;PMS_P1;PMS_P2;Temp;Humidity;BMP_temperature;BMP_pressure;BME280_temperature;BME280_humidity;BME280_pressure;Samples;Min_cycle;Max_cycle;Signal;HPM_P1;HPM_P2
2021/07/25 00:01:25;;;;;;;11.53;7.90;;;;;16.60;100364.00;;;;10434789;28;20577;-77
2021/07/25 00:06:28;;;;;;;12.80;7.43;;;;;16.60;100369.00;;;;10441357;28;20198;-78
2021/07/25 00:11:30;;;;;;;13.40;7.85;;;;;16.50;100360.00;;;;10445734;28;20202;-78
2021/07/25 00:16:32;;;;;;;14.13;8.10;;;;;16.40;100359.00;;;;10423323;28;20200;-77
2021/07/25 00:21:34;;;;;;;13.98;8.82;;;;;16.40;100357.00;;;;10432443;28;20182;-77
2021/07/25 00:26:38;;;;;;;14.67;8.00;;;;;16.30;100359.00;;;;10510350;28;20197;-77
2021/07/25 00:31:40;;;;;;;14.13;8.97;;;;;16.20;100339.00;;;;10447568;28;20737;-77
2021/07/25 00:36:42;;;;;;;15.47;8.37;;;;;16.10;100346.00;;;;10412801;28;20204;-77
2021/07/25 00:41:44;;;;;;;14.80;8.37;;;;;16.00;100358.00;;;;10446714;28;20240;-77
2021/07/25 00:46:51;;;;;;;16.50;10.17;;;;;16.00;100344.00;;;;10475737;28;20205;-78
2021/07/25 00:51:53;;;;;;;17.53;10.17;;;;;16.00;100340.00;;;;10453892;28;20621;-77
2021/07/25 00:56:55;;;;;;;13.07;9.40;;;;;15.90;100333.00;;;;10483479;28;20194;-77
2021/07/25 01:01:57;;;;;;;18.03;9.20;;;;;15.90;100334.00;;;;10478344;28;20286;-77
2021/07/25 01:07:09;;;;;;;19.60;9.70;;;;;15.90;100335.00;;;;10426455;28;20195;-77
2021/07/25 01:12:18;;;;;;;22.83;10.70;;;;;15.90;100335.00;;;;10426419;28;20213;-77
2021/07/25 01:17:30;;;;;;;17.73;10.60;;;;;15.90;100334.00;;;;10426225;28;20217;-77
2021/07/25 01:22:37;;;;;;;18.57;11.17;;;;;16.00;100320.00;;;;10465943;28;20185;-77
2021/07/25 01:27:53;;;;;;;26.67;11.90;;;;;15.90;100318.00;;;;10416542;28;20260;-77
2021/07/25 01:32:59;;;;;;;21.07;10.23;;;;;16.00;100313.00;;;;10449322;28;21002;-77
2021/07/25 01:38:02;;;;;;;17.87;10.13;;;;;16.00;100316.00;;;;10449414;28;20174;-77
2021/07/25 01:43:06;;;;;;;17.90;9.63;;;;;16.10;100314.00;;;;10448760;28;20573;-77
2021/07/25 01:48:08;;;;;;;26.07;10.83;;;;;16.10;100319.00;;;;10433506;28;20210;-77
2021/07/25 01:53:10;;;;;;;15.00;10.67;;;;;16.10;100320.00;;;;10407684;28;20274;-77
2021/07/25 01:58:12;;;;;;;20.17;10.07;;;;;16.10;100320.00;;;;10426395;28;20190;-77
2021/07/25 02:03:20;;;;;;;21.23;10.07;;;;;16.20;100313.00;;;;10423253;28;20182;-76
2021/07/25 02:08:22;;;;;;;24.97;10.27;;;;;16.20;100297.00;;;;10462580;28;20209;-77
2021/07/25 02:13:24;;;;;;;28.67;12.20;;;;;16.20;100294.00;;;;10481058;28;20185;-77
2021/07/25 02:18:27;;;;;;;25.80;13.57;;;;;16.30;100296.00;;;;10463880;28;20193;-77
2021/07/25 02:23:29;;;;;;;24.57;12.60;;;;;16.30;100298.00;;;;10454744;28;20199;-77
2021/07/25 02:28:31;;;;;;;26.50;13.73;;;;;16.30;100292.00;;;;10441330;28;20209;-77
2021/07/25 02:33:33;;;;;;;32.07;13.67;;;;;16.30;100272.00;;;;10481432;28;20220;-76
2021/07/25 02:38:35;;;;;;;26.23;15.13;;;;;16.30;100281.00;;;;10480880;28;20515;-77
2021/07/25 02:43:36;;;;;;;30.27;15.43;;;;;16.40;100283.00;;;;10464172;28;20205;-76
2021/07/25 02:48:38;;;;;;;31.13;13.83;;;;;16.40;100277.00;;;;10430946;28;20695;-77
2021/07/25 02:53:40;;;;;;;25.80;14.13;;;;;16.40;100281.00;;;;10454930;28;20208;-77
2021/07/25 02:58:42;;;;;;;28.90;13.47;;;;;16.40;100285.00;;;;10458388;28;20675;-76
2021/07/25 03:03:44;;;;;;;26.50;13.53;;;;;16.30;100286.00;;;;10428481;28;20306;-78
2021/07/25 03:08:46;;;;;;;29.77;14.37;;;;;16.20;100281.00;;;;10422273;28;20713;-78
2021/07/25 03:13:48;;;;;;;34.80;14.43;;;;;16.10;100277.00;;;;10422675;28;20190;-77
2021/07/25 03:18:50;;;;;;;24.30;14.70;;;;;16.10;100279.00;;;;10422444;28;20186;-76
2021/07/25 03:23:52;;;;;;;28.00;13.17;;;;;15.90;100272.00;;;;10405479;28;20668;-77
2021/07/25 03:28:54;;;;;;;31.00;14.03;;;;;15.80;100255.00;;;;10466530;28;20220;-77
2021/07/25 03:33:58;;;;;;;36.77;14.87;;;;;15.80;100257.00;;;;10471574;28;20217;-77
2021/07/25 03:39:00;;;;;;;31.00;14.43;;;;;15.70;100261.00;;;;10487383;28;20671;-77
2021/07/25 03:44:03;;;;;;;28.73;14.23;;;;;15.70;100261.00;;;;10487134;28;20579;-77
2021/07/25 03:49:06;;;;;;;26.13;14.50;;;;;15.70;100259.00;;;;10447926;28;20213;-77
2021/07/25 03:54:08;;;;;;;24.30;13.77;;;;;15.60;100261.00;;;;10472968;28;20197;-77
2021/07/25 03:59:10;;;;;;;24.10;13.90;;;;;15.60;100264.00;;;;10452981;28;20201;-77
2021/07/25 04:04:12;;;;;;;26.83;13.67;;;;;15.50;100251.00;;;;10437497;28;20194;-77
2021/07/25 04:09:14;;;;;;;20.60;13.50;;;;;15.50;100248.00;;;;10486709;28;20309;-77
2021/07/25 04:14:16;;;;;;;28.03;14.27;;;;;15.50;100243.00;;;;10486989;28;20185;-77
2021/07/25 04:19:18;;;;;;;22.70;14.17;;;;;15.50;100234.00;;;;10470689;28;20182;-77
2021/07/25 04:24:20;;;;;;;20.57;13.03;;;;;15.50;100248.00;;;;10453173;28;20564;-77
2021/07/25 04:29:22;;;;;;;26.83;12.50;;;;;15.60;100248.00;;;;10444953;28;20255;-76
2021/07/25 04:34:25;;;;;;;22.80;11.97;;;;;15.70;100247.00;;;;10427605;28;20221;-77
2021/07/25 04:39:27;;;;;;;23.67;11.87;;;;;15.70;100260.00;;;;10410991;28;20195;-77
2021/07/25 04:44:43;;;;;;;26.07;11.93;;;;;15.80;100259.00;;;;10428298;28;20539;-77
2021/07/25 04:49:55;;;;;;;20.57;12.57;;;;;15.90;100255.00;;;;10443482;28;20225;-77
2021/07/25 04:55:01;;;;;;;21.60;12.47;;;;;16.10;100260.00;;;;10466038;28;20202;-77
2021/07/25 05:00:04;;;;;;;20.37;11.53;;;;;16.50;100265.00;;;;10435199;28;20186;-77
2021/07/25 05:05:08;;;;;;;23.97;11.33;;;;;17.10;100269.00;;;;10460985;28;20201;-77
2021/07/25 05:10:11;;;;;;;24.08;11.07;;;;;17.10;100272.00;;;;10428015;28;20203;-77
2021/07/25 05:15:21;;;;;;;16.80;10.20;;;;;17.00;100276.00;;;;10438262;28;20206;-77
2021/07/25 05:20:47;;;;;;;18.08;8.85;;;;;17.10;100279.00;;;;10449637;28;20185;-77
2021/07/25 05:25:54;;;;;;;12.27;8.25;;;;;17.30;100287.00;;;;10461036;28;20205;-77
2021/07/25 05:30:56;;;;;;;12.85;7.95;;;;;17.40;100269.00;;;;10452968;28;20695;-78
2021/07/25 05:35:58;;;;;;;12.10;7.57;;;;;17.40;100271.00;;;;10485052;28;20266;-78
2021/07/25 05:41:03;;;;;;;14.70;7.10;;;;;17.40;100272.00;;;;10451772;28;20581;-78
2021/07/25 05:46:05;;;;;;;10.63;7.32;;;;;18.10;100288.00;;;;10435059;28;20251;-78
2021/07/25 05:51:06;;;;;;;12.75;6.65;;;;;18.40;100287.00;;;;10451764;28;20723;-78
2021/07/25 05:56:11;;;;;;;18.55;7.25;;;;;19.50;100294.00;;;;10446100;28;20209;-78
2021/07/25 06:01:13;;;;;;;8.73;6.28;;;;;20.40;100289.00;;;;10476225;28;20186;-78
2021/07/25 06:06:15;;;;;;;5.20;4.45;;;;;21.10;100298.00;;;;10482917;28;20189;-78
2021/07/25 06:11:22;;;;;;;11.00;4.70;;;;;21.50;100302.00;;;;10432257;28;20681;-78
2021/07/25 06:16:24;;;;;;;7.70;4.68;;;;;21.60;100291.00;;;;10433786;28;20253;-78
2021/07/25 06:21:27;;;;;;;7.18;4.60;;;;;22.10;100294.00;;;;10445666;28;20896;-78
2021/07/25 06:26:30;;;;;;;8.63;4.72;;;;;22.70;100292.00;;;;10481740;28;20201;-78
2021/07/25 06:31:31;;;;;;;8.13;4.47;;;;;23.30;100299.00;;;;10494792;28;20231;-78
2021/07/25 06:36:36;;;;;;;6.75;4.00;;;;;24.00;100296.00;;;;10485812;28;20265;-78
2021/07/25 06:41:38;;;;;;;4.28;3.42;;;;;24.40;100288.00;;;;10417094;28;20197;-79
2021/07/25 06:46:40;;;;;;;6.90;3.45;;;;;25.00;100284.00;;;;10455096;28;20251;-78
2021/07/25 06:51:42;;;;;;;6.78;3.08;;;;;24.60;100288.00;;;;10480669;28;20206;-78
2021/07/25 06:56:43;;;;;;;8.57;3.55;;;;;24.00;100292.00;;;;10465030;28;20198;-79
2021/07/25 07:01:45;;;;;;;3.60;2.97;;;;;23.50;100293.00;;;;10431726;28;20190;-79
2021/07/25 07:06:48;;;;;;;5.57;3.50;;;;;23.30;100287.00;;;;10414841;28;20271;-79
2021/07/25 07:11:50;;;;;;;4.57;3.40;;;;;24.40;100275.00;;;;10466997;28;20205;-78
2021/07/25 07:16:51;;;;;;;7.03;3.22;;;;;25.10;100272.00;;;;10487352;28;20186;-79
2021/07/25 07:21:53;;;;;;;5.47;3.30;;;;;26.10;100280.00;;;;10433967;28;20205;-80
2021/07/25 07:26:55;;;;;;;5.03;3.28;;;;;26.20;100276.00;;;;10465940;28;20201;-80
2021/07/25 07:31:57;;;;;;;9.77;3.25;;;;;26.70;100280.00;;;;10451399;28;20222;-79
2021/07/25 07:36:59;;;;;;;5.97;3.05;;;;;26.10;100293.00;;;;10489801;28;20197;-80
2021/07/25 07:42:03;;;;;;;5.32;3.35;;;;;25.00;100290.00;;;;10488844;28;20257;-81
2021/07/25 07:47:05;;;;;;;5.47;3.00;;;;;24.80;100296.00;;;;10474744;28;20194;-81
2021/07/25 07:52:07;;;;;;;4.85;3.72;;;;;25.10;100292.00;;;;10469234;28;20730;-80
2021/07/25 07:57:09;;;;;;;11.00;2.88;;;;;26.30;100291.00;;;;10459350;28;20197;-81
2021/07/25 08:02:11;;;;;;;5.38;3.70;;;;;26.50;100288.00;;;;10468246;28;20191;-82
2021/07/25 08:07:13;;;;;;;7.93;3.78;;;;;27.20;100280.00;;;;10433466;28;20195;-82
2021/07/25 08:12:15;;;;;;;7.68;3.45;;;;;28.20;100280.00;;;;10446215;28;20233;-82
2021/07/25 08:17:17;;;;;;;5.55;3.08;;;;;29.30;100269.00;;;;10428104;28;20214;-82
2021/07/25 08:22:20;;;;;;;3.88;2.65;;;;;30.00;100281.00;;;;10448881;28;20762;-82
2021/07/25 08:27:22;;;;;;;5.65;2.90;;;;;29.30;100283.00;;;;10459779;28;20205;-82
2021/07/25 08:32:24;;;;;;;5.45;3.22;;;;;28.40;100289.00;;;;10464263;28;20313;-82
2021/07/25 08:37:26;;;;;;;5.82;3.13;;;;;27.60;100286.00;;;;10431965;28;20189;-82
2021/07/25 08:42:34;;;;;;;5.03;2.58;;;;;27.30;100291.00;;;;10452911;28;20265;-82
2021/07/25 08:47:39;;;;;;;3.50;2.10;;;;;26.70;100293.00;;;;10477849;28;20200;-82
2021/07/25 08:52:43;;;;;;;4.57;2.03;;;;;26.80;100296.00;;;;10460068;28;20224;-82
2021/07/25 08:57:47;;;;;;;3.55;2.78;;;;;26.90;100302.00;;;;10455284;28;20202;-82
2021/07/25 09:02:50;;;;;;;6.30;2.75;;;;;26.70;100297.00;;;;10448271;28;20651;-82
2021/07/25 09:07:52;;;;;;;4.18;2.78;;;;;27.70;100303.00;;;;10438488;28;20202;-81
2021/07/25 09:12:55;;;;;;;6.07;2.70;;;;;29.10;100286.00;;;;10469552;28;20640;-82
2021/07/25 09:17:58;;;;;;;4.25;2.78;;;;;29.00;100305.00;;;;10455372;28;20213;-82
2021/07/25 09:23:07;;;;;;;4.47;2.75;;;;;27.90;100303.00;;;;10467514;28;20190;-82
2021/07/25 09:28:20;;;;;;;4.93;2.85;;;;;28.00;100310.00;;;;10479591;28;20229;-82
2021/07/25 09:33:28;;;;;;;5.65;2.72;;;;;28.60;100293.00;;;;10500263;28;20209;-82
2021/07/25 09:38:30;;;;;;;5.80;2.65;;;;;30.50;100294.00;;;;10439505;28;20545;-82
2021/07/25 09:43:32;;;;;;;6.88;2.80;;;;;30.40;100284.00;;;;10452884;28;20661;-82
2021/07/25 09:48:35;;;;;;;4.13;2.47;;;;;30.20;100276.00;;;;10441053;28;20195;-82
2021/07/25 09:53:45;;;;;;;3.63;2.20;;;;;29.90;100284.00;;;;10460955;28;20548;-82
2021/07/25 09:58:47;;;;;;;3.92;2.53;;;;;30.00;100288.00;;;;10455779;28;20201;-82
2021/07/25 10:03:49;;;;;;;3.17;2.20;;;;;29.00;100281.00;;;;10445742;28;20202;-82
2021/07/25 10:09:10;;;;;;;5.68;2.40;;;;;27.90;100278.00;;;;10466537;28;20227;-81
2021/07/25 10:14:15;;;;;;;5.63;2.30;;;;;27.30;100279.00;;;;10488407;28;20201;-82
2021/07/25 10:19:27;;;;;;;4.35;2.35;;;;;28.70;100269.00;;;;10434447;28;20218;-82
2021/07/25 10:24:30;;;;;;;5.35;2.40;;;;;30.20;100265.00;;;;10440667;28;20197;-82
2021/07/25 10:29:40;;;;;;;2.95;1.80;;;;;30.10;100255.00;;;;10457781;28;20209;-82
2021/07/25 10:34:43;;;;;;;6.22;2.22;;;;;30.30;100268.00;;;;10459508;28;20241;-82
2021/07/25 10:39:49;;;;;;;4.07;2.08;;;;;31.90;100255.00;;;;10495670;28;20196;-82
2021/07/25 10:44:51;;;;;;;3.58;1.90;;;;;31.50;100243.00;;;;10456680;28;20209;-82
2021/07/25 10:50:04;;;;;;;3.85;2.00;;;;;30.80;100237.00;;;;10473528;28;20201;-83
2021/07/25 10:55:06;;;;;;;4.57;1.80;;;;;31.60;100236.00;;;;10422919;28;20205;-83
2021/07/25 11:00:40;;;;;;;2.90;1.98;;;;;31.90;100232.00;;;;10446181;28;20197;-82
2021/07/25 11:06:02;;;;;;;4.10;1.60;;;;;31.30;100244.00;;;;10445777;28;20270;-83
2021/07/25 11:11:35;;;;;;;4.50;1.90;;;;;29.30;100244.00;;;;10454024;28;20213;-81
2021/07/25 11:16:42;;;;;;;5.38;2.92;;;;;27.20;100249.00;;;;10430827;28;20248;-83
2021/07/25 11:21:44;;;;;;;6.93;2.92;;;;;25.00;100241.00;;;;10441151;28;20182;-80
2021/07/25 11:26:51;;;;;;;4.47;3.25;;;;;24.60;100245.00;;;;10426236;28;20185;-79
2021/07/25 11:31:53;;;;;;;9.52;3.85;;;;;24.50;100283.00;;;;10483762;28;20697;-79
2021/07/25 11:36:57;;;;;;;6.05;3.22;;;;;23.50;100248.00;;;;10403973;28;20229;-79
2021/07/25 11:42:04;;;;;;;3.78;3.40;;;;;23.70;100249.00;;;;10436391;28;20197;-79
2021/07/25 11:47:07;;;;;;;4.10;2.60;;;;;23.70;100262.00;;;;10442025;28;20234;-78
2021/07/25 11:52:12;;;;;;;2.58;2.38;;;;;23.50;100280.00;;;;10484038;28;20765;-79
2021/07/25 11:57:25;;;;;;;4.00;2.83;;;;;25.40;100271.00;;;;10453175;28;20209;-78
2021/07/25 12:02:39;;;;;;;7.20;3.22;;;;;26.80;100284.00;;;;10479403;28;20591;-79
2021/07/25 12:07:44;;;;;;;5.30;2.90;;;;;28.10;100275.00;;;;10465101;28;20762;-78
2021/07/25 12:12:47;;;;;;;2.92;2.25;;;;;28.40;100279.00;;;;10435991;28;20252;-79
2021/07/25 12:17:49;;;;;;;3.22;2.20;;;;;27.60;100286.00;;;;10466468;28;20251;-79
2021/07/25 12:22:56;;;;;;;7.45;2.75;;;;;27.40;100268.00;;;;10433222;28;20217;-79
2021/07/25 12:28:16;;;;;;;4.38;2.53;;;;;28.80;100266.00;;;;10472110;28;20220;-79
2021/07/25 12:33:29;;;;;;;2.83;1.90;;;;;28.00;100267.00;;;;10442997;28;20267;-79
2021/07/25 12:38:33;;;;;;;4.80;2.35;;;;;28.30;100276.00;;;;10457485;28;20208;-79
2021/07/25 12:43:35;;;;;;;4.32;2.15;;;;;27.20;100266.00;;;;10456308;28;20221;-79
2021/07/25 12:48:37;;;;;;;4.78;2.30;;;;;27.00;100262.00;;;;10444578;28;20206;-79
2021/07/25 12:53:51;;;;;;;3.20;2.20;;;;;26.90;100257.00;;;;10448609;28;20643;-79
2021/07/25 12:58:56;;;;;;;4.45;2.22;;;;;26.90;100264.00;;;;10440675;28;20201;-80
2021/07/25 13:04:08;;;;;;;3.45;2.13;;;;;27.00;100254.00;;;;10456823;28;20193;-79
2021/07/25 13:09:11;;;;;;;4.13;2.45;;;;;28.00;100245.00;;;;10485933;28;20197;-80
2021/07/25 13:14:17;;;;;;;3.38;2.17;;;;;28.50;100252.00;;;;10466549;28;20663;-80
2021/07/25 13:19:21;;;;;;;4.15;1.80;;;;;27.50;100254.00;;;;10476562;28;20253;-80
2021/07/25 13:24:23;;;;;;;2.63;2.20;;;;;27.10;100250.00;;;;10457775;28;20197;-80
2021/07/25 13:29:25;;;;;;;4.15;2.50;;;;;27.50;100249.00;;;;10497611;28;20227;-80
2021/07/25 13:34:27;;;;;;;4.68;2.17;;;;;28.60;100257.00;;;;10471987;28;20291;-80
2021/07/25 13:39:29;;;;;;;4.97;2.80;;;;;29.30;100249.00;;;;10450762;28;20277;-80
2021/07/25 13:44:31;;;;;;;2.53;2.22;;;;;29.50;100243.00;;;;10498438;28;20197;-81
2021/07/25 13:49:33;;;;;;;3.35;2.17;;;;;30.00;100241.00;;;;10517561;28;20204;-81
2021/07/25 13:54:39;;;;;;;3.45;2.22;;;;;30.60;100237.00;;;;10487430;28;20201;-80
2021/07/25 13:59:40;;;;;;;3.15;2.22;;;;;31.30;100242.00;;;;10483012;28;20676;-81
2021/07/25 14:04:42;;;;;;;2.05;1.80;;;;;28.70;100241.00;;;;10470469;28;20723;-81
2021/07/25 14:09:45;;;;;;;5.07;2.38;;;;;26.80;100253.00;;;;10494256;28;20303;-81
2021/07/25 14:14:46;;;;;;;3.47;2.55;;;;;25.00;100271.00;;;;10469612;28;20198;-81
2021/07/25 14:19:52;;;;;;;2.60;2.38;;;;;24.00;100265.00;;;;10464973;28;20193;-81
2021/07/25 14:24:53;;;;;;;2.97;2.60;;;;;24.40;100250.00;;;;10497278;28;20631;-79
2021/07/25 14:29:55;;;;;;;2.63;2.35;;;;;30.50;100225.00;;;;10475100;28;20618;-80
2021/07/25 14:34:57;;;;;;;2.40;2.17;;;;;33.20;100229.00;;;;10492378;28;20218;-81
2021/07/25 14:39:59;;;;;;;6.15;2.25;;;;;34.60;100233.00;;;;10481977;28;20193;-81
2021/07/25 14:45:03;;;;;;;3.00;2.15;;;;;35.80;100224.00;;;;10462565;28;20229;-81
2021/07/25 14:50:05;;;;;;;2.45;2.00;;;;;36.10;100218.00;;;;10468020;28;20218;-81
2021/07/25 14:55:08;;;;;;;5.22;2.47;;;;;36.90;100216.00;;;;10482930;28;20631;-81
2021/07/25 15:00:13;;;;;;;4.20;2.63;;;;;35.60;100218.00;;;;10464369;28;20177;-80
2021/07/25 15:05:14;;;;;;;2.83;2.33;;;;;37.10;100201.00;;;;10486897;28;20221;-81
2021/07/25 15:10:17;;;;;;;5.68;2.20;;;;;36.60;100192.00;;;;10494994;28;20261;-81
2021/07/25 15:15:19;;;;;;;3.28;2.03;;;;;37.30;100192.00;;;;10451705;28;20386;-80
2021/07/25 15:20:21;;;;;;;2.85;2.22;;;;;36.00;100191.00;;;;10484762;28;20235;-80
2021/07/25 15:25:27;;;;;;;2.28;1.80;;;;;37.70;100182.00;;;;10460447;28;20196;-81
2021/07/25 15:30:29;;;;;;;1.95;1.83;;;;;35.00;100189.00;;;;10469260;28;20212;-81
2021/07/25 15:35:34;;;;;;;1.95;1.52;;;;;34.70;100182.00;;;;10478320;28;20225;-81
2021/07/25 15:40:36;;;;;;;3.17;1.63;;;;;34.60;100170.00;;;;10518473;28;20228;-81
2021/07/25 15:45:38;;;;;;;3.85;2.03;;;;;34.50;100169.00;;;;10514625;28;20205;-81
2021/07/25 15:50:45;;;;;;;1.63;1.52;;;;;32.90;100182.00;;;;10481367;28;20234;-82
2021/07/25 15:55:47;;;;;;;2.33;1.95;;;;;31.00;100181.00;;;;10471362;28;20201;-82
2021/07/25 16:00:49;;;;;;;2.17;1.98;;;;;30.00;100190.00;;;;10478178;28;20239;-82
2021/07/25 16:05:51;;;;;;;4.30;2.35;;;;;28.60;100208.00;;;;10479496;28;20831;-81
2021/07/25 16:10:53;;;;;;;3.05;2.30;;;;;26.60;100218.00;;;;10489856;28;20215;-81
2021/07/25 16:15:55;;;;;;;4.13;2.00;;;;;25.30;100222.00;;;;10498017;28;20691;-80
2021/07/25 16:20:57;;;;;;;2.55;1.20;;;;;24.00;100223.00;;;;10474481;28;20192;-81
2021/07/25 16:25:59;;;;;;;2.60;1.48;;;;;22.70;100220.00;;;;10512576;28;20190;-81
2021/07/25 16:31:11;;;;;;;0.80;0.80;;;;;22.60;100218.00;;;;10521201;28;20200;-81
2021/07/25 16:36:14;;;;;;;1.30;1.00;;;;;22.80;100220.00;;;;10507088;28;20831;-80
2021/07/25 16:41:21;;;;;;;1.10;1.00;;;;;22.70;100223.00;;;;10482594;28;20235;-82
2021/07/25 16:46:23;;;;;;;1.42;1.02;;;;;22.80;100227.00;;;;10499031;28;20698;-81
2021/07/25 16:51:26;;;;;;;1.73;0.90;;;;;22.60;100218.00;;;;10481882;28;20233;-82
2021/07/25 16:56:28;;;;;;;1.55;1.05;;;;;22.60;100215.00;;;;10470557;28;20196;-81
2021/07/25 17:01:30;;;;;;;1.60;1.23;;;;;22.60;100212.00;;;;10459596;28;20280;-81
2021/07/25 17:06:34;;;;;;;1.85;1.20;;;;;22.50;100212.00;;;;10496237;28;20276;-80
2021/07/25 17:11:36;;;;;;;2.97;1.30;;;;;22.30;100216.00;;;;10463858;28;20202;-81
2021/07/25 17:16:38;;;;;;;1.92;1.30;;;;;21.90;100226.00;;;;10498270;28;20198;-81
2021/07/25 17:21:40;;;;;;;1.60;1.50;;;;;21.40;100244.00;;;;10490562;28;20205;-81
2021/07/25 17:26:46;;;;;;;3.78;1.60;;;;;21.20;100218.00;;;;10512373;28;20224;-80
2021/07/25 17:31:48;;;;;;;2.60;1.50;;;;;21.00;100249.00;;;;10446466;28;20255;-81
2021/07/25 17:36:50;;;;;;;2.22;1.48;;;;;20.90;100265.00;;;;10470283;28;20201;-81
2021/07/25 17:41:52;;;;;;;1.73;1.63;;;;;20.70;100289.00;;;;10471446;28;20209;-80
2021/07/25 17:46:53;;;;;;;2.90;1.10;;;;;20.50;100291.00;;;;10447382;28;20226;-81
2021/07/25 17:51:56;;;;;;;1.45;0.90;;;;;20.30;100285.00;;;;10456526;28;20300;-81
2021/07/25 17:56:58;;;;;;;2.88;1.90;;;;;20.10;100288.00;;;;10441889;28;20200;-80
2021/07/25 18:02:00;;;;;;;3.20;1.50;;;;;20.00;100314.00;;;;10455325;28;20193;-81
2021/07/25 18:07:03;;;;;;;3.15;1.60;;;;;20.00;100311.00;;;;10433241;28;20194;-81
2021/07/25 18:12:05;;;;;;;2.80;1.35;;;;;20.00;100294.00;;;;10450050;28;20210;-81
2021/07/25 18:17:08;;;;;;;2.28;1.55;;;;;20.10;100292.00;;;;10433496;28;20190;-81
2021/07/25 18:22:10;;;;;;;2.88;1.50;;;;;20.10;100284.00;;;;10435560;28;20205;-81
2021/07/25 18:27:11;;;;;;;2.22;1.65;;;;;20.10;100280.00;;;;10432416;28;20190;-81
2021/07/25 18:32:13;;;;;;;3.67;2.30;;;;;20.10;100288.00;;;;10448057;28;20233;-81
2021/07/25 18:37:15;;;;;;;2.53;2.28;;;;;20.00;100293.00;;;;10440007;28;20526;-81
2021/07/25 18:42:17;;;;;;;2.20;2.00;;;;;20.00;100303.00;;;;10473274;28;20182;-81
2021/07/25 18:47:19;;;;;;;2.08;1.60;;;;;19.90;100291.00;;;;10489726;28;20233;-81
2021/07/25 18:52:22;;;;;;;4.22;1.80;;;;;19.80;100302.00;;;;10476053;28;20216;-80
2021/07/25 18:57:24;;;;;;;2.72;1.52;;;;;19.70;100304.00;;;;10471496;28;20189;-80
2021/07/25 19:02:26;;;;;;;2.72;1.58;;;;;19.60;100287.00;;;;10464090;28;20182;-81
2021/07/25 19:07:29;;;;;;;2.70;1.52;;;;;19.50;100300.00;;;;10488885;28;20235;-81
2021/07/25 19:12:32;;;;;;;1.77;1.45;;;;;19.40;100292.00;;;;10471993;28;20209;-80
2021/07/25 19:17:34;;;;;;;3.17;1.95;;;;;19.30;100293.00;;;;10454857;28;20190;-81
2021/07/25 19:22:36;;;;;;;3.55;1.73;;;;;19.30;100304.00;;;;10461694;28;20285;-80
2021/07/25 19:27:38;;;;;;;1.90;1.60;;;;;19.20;100318.00;;;;10429439;28;20610;-80
2021/07/25 19:32:40;;;;;;;1.70;1.40;;;;;19.10;100326.00;;;;10447318;28;20248;-80
2021/07/25 19:37:42;;;;;;;4.15;1.67;;;;;19.00;100331.00;;;;10414199;28;20187;-80
2021/07/25 19:42:44;;;;;;;2.80;1.90;;;;;19.00;100335.00;;;;10429829;28;20182;-80
2021/07/25 19:47:45;;;;;;;2.30;1.48;;;;;18.90;100324.00;;;;10466442;28;20185;-81
2021/07/25 19:52:47;;;;;;;4.22;1.85;;;;;18.90;100338.00;;;;10434158;28;20267;-80
2021/07/25 19:57:57;;;;;;;3.05;1.77;;;;;18.80;100349.00;;;;10414017;28;20186;-81
2021/07/25 20:03:08;;;;;;;2.28;1.90;;;;;18.60;100346.00;;;;10430924;28;20191;-80
2021/07/25 20:08:12;;;;;;;4.15;1.85;;;;;18.40;100347.00;;;;10432064;28;20204;-80
2021/07/25 20:13:14;;;;;;;2.70;2.22;;;;;18.30;100361.00;;;;10436793;28;20225;-81
2021/07/25 20:18:16;;;;;;;2.10;1.83;;;;;18.20;100370.00;;;;10436194;28;20592;-80
2021/07/25 20:23:18;;;;;;;2.85;2.17;;;;;18.10;100371.00;;;;10454207;28;20297;-81
2021/07/25 20:28:20;;;;;;;7.40;1.90;;;;;18.10;100361.00;;;;10461799;28;20292;-81
2021/07/25 20:33:22;;;;;;;4.05;2.50;;;;;18.20;100359.00;;;;10477998;28;20217;-80
2021/07/25 20:38:24;;;;;;;3.67;2.00;;;;;18.20;100371.00;;;;10460743;28;20243;-80
2021/07/25 20:43:26;;;;;;;2.50;2.10;;;;;18.20;100354.00;;;;10477240;28;20251;-81
2021/07/25 20:48:37;;;;;;;2.53;2.33;;;;;18.20;100355.00;;;;10460737;28;20193;-81
2021/07/25 20:53:59;;;;;;;2.65;2.13;;;;;18.00;100356.00;;;;10420625;28;20202;-81
2021/07/25 20:59:01;;;;;;;5.63;2.40;;;;;17.90;100359.00;;;;10470470;28;20193;-81
2021/07/25 21:04:03;;;;;;;3.25;2.05;;;;;17.80;100354.00;;;;10419196;28;20232;-80
2021/07/25 21:09:07;;;;;;;4.18;2.53;;;;;17.80;100349.00;;;;10451431;28;20184;-81
2021/07/25 21:14:11;;;;;;;4.10;2.50;;;;;17.70;100342.00;;;;10419084;28;20241;-81
2021/07/25 21:19:13;;;;;;;3.17;2.10;;;;;17.60;100345.00;;;;10463072;28;20204;-80
2021/07/25 21:24:16;;;;;;;6.55;2.80;;;;;17.60;100347.00;;;;10458878;28;20192;-81
2021/07/25 21:29:18;;;;;;;3.20;2.83;;;;;17.60;100336.00;;;;10458993;28;20205;-81
2021/07/25 21:34:21;;;;;;;5.05;2.53;;;;;17.70;100340.00;;;;10492558;28;20213;-81
2021/07/25 21:39:23;;;;;;;3.72;2.75;;;;;17.70;100335.00;;;;10475071;28;20190;-80
2021/07/25 21:44:25;;;;;;;8.32;2.88;;;;;17.80;100333.00;;;;10509452;28;20189;-80
2021/07/25 21:49:27;;;;;;;5.25;2.78;;;;;17.90;100336.00;;;;10441158;28;20194;-81
2021/07/25 21:54:29;;;;;;;4.93;3.10;;;;;17.90;100323.00;;;;10418870;28;20692;-80
2021/07/25 21:59:33;;;;;;;7.25;3.00;;;;;17.90;100321.00;;;;10442961;28;20201;-80
2021/07/25 22:04:41;;;;;;;7.28;2.90;;;;;17.90;100335.00;;;;10474233;28;20197;-80
2021/07/25 22:09:43;;;;;;;6.03;3.10;;;;;17.80;100339.00;;;;10475661;28;20273;-80
2021/07/25 22:14:45;;;;;;;6.50;2.83;;;;;17.80;100334.00;;;;10458299;28;20760;-81
2021/07/25 22:19:47;;;;;;;6.55;3.40;;;;;17.80;100343.00;;;;10473666;28;20243;-81
2021/07/25 22:24:49;;;;;;;9.68;3.55;;;;;17.70;100344.00;;;;10475955;28;20243;-81
2021/07/25 22:29:51;;;;;;;6.72;3.13;;;;;17.60;100350.00;;;;10491144;28;20190;-81
2021/07/25 22:34:53;;;;;;;6.30;4.10;;;;;17.60;100347.00;;;;10472565;28;20672;-80
2021/07/25 22:39:55;;;;;;;10.50;3.67;;;;;17.60;100347.00;;;;10456588;28;20211;-81
2021/07/25 22:44:57;;;;;;;11.95;4.10;;;;;17.50;100341.00;;;;10489631;28;20453;-81
2021/07/25 22:49:59;;;;;;;6.82;4.20;;;;;17.50;100346.00;;;;10456900;28;20684;-81
2021/07/25 22:55:02;;;;;;;6.82;4.03;;;;;17.50;100351.00;;;;10450434;28;20214;-81
2021/07/25 23:00:04;;;;;;;6.25;3.97;;;;;17.50;100345.00;;;;10435921;28;20201;-81
2021/07/25 23:05:07;;;;;;;9.13;4.68;;;;;17.40;100339.00;;;;10415350;28;20189;-81
2021/07/25 23:10:09;;;;;;;9.38;3.50;;;;;17.40;100349.00;;;;10399932;28;20194;-81
2021/07/25 23:15:12;;;;;;;6.22;4.10;;;;;17.30;100335.00;;;;10414442;28;20218;-80
2021/07/25 23:20:14;;;;;;;9.20;5.70;;;;;17.30;100334.00;;;;10454144;28;20198;-81
2021/07/25 23:25:17;;;;;;;11.65;6.47;;;;;17.30;100333.00;;;;10446428;28;20227;-81
2021/07/25 23:30:19;;;;;;;11.70;6.30;;;;;17.30;100324.00;;;;10412475;28;20681;-81
2021/07/25 23:35:23;;;;;;;10.52;5.82;;;;;17.40;100308.00;;;;10446989;28;20280;-81
2021/07/25 23:40:27;;;;;;;7.75;5.03;;;;;17.40;100305.00;;;;10443310;28;20213;-80
2021/07/25 23:45:29;;;;;;;6.25;4.35;;;;;17.40;100303.00;;;;10461378;28;20228;-80
2021/07/25 23:50:31;;;;;;;6.70;4.38;;;;;17.40;100305.00;;;;10462867;28;20696;-80
2021/07/25 23:55:33;;;;;;;6.40;3.83;;;;;17.30;100285.00;;;;10440865;28;20206;-81
